sensor_id;sensor_type;location;lat;lon;timestamp;P1;P2;P0
73623;PMS5003;61921;53.226;-1.296;2022-09-27T00:02:19;1;1;
73623;PMS5003;61921;53.226;-1.296;2022-09-27T00:04:40;1;1;
73623;PMS5003;61921;53.226;-1.296;2022-09-27T00:07:05;0;0;
73623;PMS5003;61921;53.226;-1.296;2022-09-27T00:09:31;3;1;
73623;PMS5003;61921;53.226;-1.296;2022-09-27T00:11:56;1;1;
73623;PMS5003;61921;53.226;-1.296;2022-09-27T00:14:22;1;0;
73623;PMS5003;61921;53.226;-1.296;2022-09-27T00:16:52;2;2;
73623;PMS5003;61921;53.226;-1.296;2022-09-27T00:19:13;1;1;
73623;PMS5003;61921;53.226;-1.296;2022-09-27T00:21:38;1;1;
73623;PMS5003;61921;53.226;-1.296;2022-09-27T00:24:04;1;1;
73623;PMS5003;61921;53.226;-1.296;2022-09-27T00:26:29;2;2;
73623;PMS5003;61921;53.226;-1.296;2022-09-27T00:28:55;5;3;
73623;PMS5003;61921;53.226;-1.296;2022-09-27T00:31:21;2;1;
73623;PMS5003;61921;53.226;-1.296;2022-09-27T00:33:46;1;1;
73623;PMS5003;61921;53.226;-1.296;2022-09-27T00:36:11;0;0;
73623;PMS5003;61921;53.226;-1.296;2022-09-27T00:38:37;1;1;
73623;PMS5003;61921;53.226;-1.296;2022-09-27T00:41:02;1;1;
73623;PMS5003;61921;53.226;-1.296;2022-09-27T00:43:33;1;1;
73623;PMS5003;61921;53.226;-1.296;2022-09-27T00:45:56;1;1;
73623;PMS5003;61921;53.226;-1.296;2022-09-27T00:48:20;0;0;
73623;PMS5003;61921;53.226;-1.296;2022-09-27T00:50:44;1;1;
73623;PMS5003;61921;53.226;-1.296;2022-09-27T00:53:11;0;0;
73623;PMS5003;61921;53.226;-1.296;2022-09-27T00:55:36;1;1;
73623;PMS5003;61921;53.226;-1.296;2022-09-27T00:58:01;0;0;
73623;PMS5003;61921;53.226;-1.296;2022-09-27T01:00:26;1;1;
73623;PMS5003;61921;53.226;-1.296;2022-09-27T01:02:52;0;0;
73623;PMS5003;61921;53.226;-1.296;2022-09-27T01:05:17;1;1;
73623;PMS5003;61921;53.226;-1.296;2022-09-27T01:07:42;0;0;
73623;PMS5003;61921;53.226;-1.296;2022-09-27T01:10:08;1;0;
73623;PMS5003;61921;53.226;-1.296;2022-09-27T01:12:36;0;0;
73623;PMS5003;61921;53.226;-1.296;2022-09-27T01:15:02;2;1;
73623;PMS5003;61921;53.226;-1.296;2022-09-27T01:17:29;2;1;
73623;PMS5003;61921;53.226;-1.296;2022-09-27T01:22:16;0;0;
73623;PMS5003;61921;53.226;-1.296;2022-09-27T01:24:51;3;1;
73623;PMS5003;61921;53.226;-1.296;2022-09-27T01:27:16;1;1;
73623;PMS5003;61921;53.226;-1.296;2022-09-27T01:29:33;1;0;
73623;PMS5003;61921;53.226;-1.296;2022-09-27T01:31:59;3;3;
73623;PMS5003;61921;53.226;-1.296;2022-09-27T01:34:24;1;1;
73623;PMS5003;61921;53.226;-1.296;2022-09-27T01:36:50;1;1;
73623;PMS5003;61921;53.226;-1.296;2022-09-27T01:39:19;2;2;
73623;PMS5003;61921;53.226;-1.296;2022-09-27T01:41:42;3;1;
73623;PMS5003;61921;53.226;-1.296;2022-09-27T01:44:06;1;1;
73623;PMS5003;61921;53.226;-1.296;2022-09-27T01:46:31;1;1;
73623;PMS5003;61921;53.226;-1.296;2022-09-27T01:48:56;2;2;
73623;PMS5003;61921;53.226;-1.296;2022-09-27T01:51:22;1;1;
73623;PMS5003;61921;53.226;-1.296;2022-09-27T01:53:48;2;1;
73623;PMS5003;61921;53.226;-1.296;2022-09-27T01:56:13;6;3;
73623;PMS5003;61921;53.226;-1.296;2022-09-27T01:58:40;2;2;
73623;PMS5003;61921;53.226;-1.296;2022-09-27T02:01:04;2;2;
73623;PMS5003;61921;53.226;-1.296;2022-09-27T02:03:31;3;2;
73623;PMS5003;61921;53.226;-1.296;2022-09-27T02:05:56;3;3;
73623;PMS5003;61921;53.226;-1.296;2022-09-27T02:08:21;3;3;
73623;PMS5003;61921;53.226;-1.296;2022-09-27T02:10:46;6;4;
73623;PMS5003;61921;53.226;-1.296;2022-09-27T02:13:18;10;6;
73623;PMS5003;61921;53.226;-1.296;2022-09-27T02:15:39;4;3;
73623;PMS5003;61921;53.226;-1.296;2022-09-27T02:18:04;5;5;
73623;PMS5003;61921;53.226;-1.296;2022-09-27T02:20:29;6;6;
73623;PMS5003;61921;53.226;-1.296;2022-09-27T02:22:54;7;7;
73623;PMS5003;61921;53.226;-1.296;2022-09-27T02:25:20;7;7;
73623;PMS5003;61921;53.226;-1.296;2022-09-27T02:27:47;7;7;
73623;PMS5003;61921;53.226;-1.296;2022-09-27T02:30:11;9;7;
73623;PMS5003;61921;53.226;-1.296;2022-09-27T02:32:36;6;6;
73623;PMS5003;61921;53.226;-1.296;2022-09-27T02:35:03;6;6;
73623;PMS5003;61921;53.226;-1.296;2022-09-27T02:37:27;11;8;
73623;PMS5003;61921;53.226;-1.296;2022-09-27T02:39:52;7;7;
73623;PMS5003;61921;53.226;-1.296;2022-09-27T02:42:18;9;8;
73623;PMS5003;61921;53.226;-1.296;2022-09-27T02:44:43;9;8;
73623;PMS5003;61921;53.226;-1.296;2022-09-27T02:47:14;6;6;
73623;PMS5003;61921;53.226;-1.296;2022-09-27T02:49:40;9;8;
73623;PMS5003;61921;53.226;-1.296;2022-09-27T02:52:02;7;6;
73623;PMS5003;61921;53.226;-1.296;2022-09-27T02:54:28;9;8;
73623;PMS5003;61921;53.226;-1.296;2022-09-27T02:56:54;11;11;
73623;PMS5003;61921;53.226;-1.296;2022-09-27T02:59:17;8;7;
73623;PMS5003;61921;53.226;-1.296;2022-09-27T03:01:43;11;8;
73623;PMS5003;61921;53.226;-1.296;2022-09-27T03:04:09;7;6;
73623;PMS5003;61921;53.226;-1.296;2022-09-27T03:06:33;8;5;
73623;PMS5003;61921;53.226;-1.296;2022-09-27T03:08:58;6;6;
73623;PMS5003;61921;53.226;-1.296;2022-09-27T03:11:24;8;6;
73623;PMS5003;61921;53.226;-1.296;2022-09-27T03:13:50;6;5;
73623;PMS5003;61921;53.226;-1.296;2022-09-27T03:16:15;6;5;
73623;PMS5003;61921;53.226;-1.296;2022-09-27T03:18:41;6;6;
73623;PMS5003;61921;53.226;-1.296;2022-09-27T03:21:06;6;6;
73623;PMS5003;61921;53.226;-1.296;2022-09-27T03:23:32;8;4;
73623;PMS5003;61921;53.226;-1.296;2022-09-27T03:25:57;5;4;
73623;PMS5003;61921;53.226;-1.296;2022-09-27T03:28:23;7;7;
73623;PMS5003;61921;53.226;-1.296;2022-09-27T03:30:49;5;5;
73623;PMS5003;61921;53.226;-1.296;2022-09-27T03:33:14;4;4;
73623;PMS5003;61921;53.226;-1.296;2022-09-27T03:35:40;7;7;
73623;PMS5003;61921;53.226;-1.296;2022-09-27T03:38:05;6;6;
73623;PMS5003;61921;53.226;-1.296;2022-09-27T03:40:30;6;6;
73623;PMS5003;61921;53.226;-1.296;2022-09-27T03:42:56;9;7;
73623;PMS5003;61921;53.226;-1.296;2022-09-27T03:45:21;6;6;
73623;PMS5003;61921;53.226;-1.296;2022-09-27T03:47:47;4;3;
73623;PMS5003;61921;53.226;-1.296;2022-09-27T03:50:13;6;6;
73623;PMS5003;61921;53.226;-1.296;2022-09-27T03:52:38;4;4;
73623;PMS5003;61921;53.226;-1.296;2022-09-27T03:55:04;5;4;
73623;PMS5003;61921;53.226;-1.296;2022-09-27T03:57:29;4;4;
73623;PMS5003;61921;53.226;-1.296;2022-09-27T03:59:55;4;2;
73623;PMS5003;61921;53.226;-1.296;2022-09-27T04:02:20;4;3;
73623;PMS5003;61921;53.226;-1.296;2022-09-27T04:04:46;3;3;
73623;PMS5003;61921;53.226;-1.296;2022-09-27T04:07:11;2;2;
73623;PMS5003;61921;53.226;-1.296;2022-09-27T04:09:37;4;4;
73623;PMS5003;61921;53.226;-1.296;2022-09-27T04:12:02;3;2;
73623;PMS5003;61921;53.226;-1.296;2022-09-27T04:14:28;7;6;
73623;PMS5003;61921;53.226;-1.296;2022-09-27T04:16:53;7;3;
73623;PMS5003;61921;53.226;-1.296;2022-09-27T04:19:19;4;4;
73623;PMS5003;61921;53.226;-1.296;2022-09-27T04:21:44;3;2;
73623;PMS5003;61921;53.226;-1.296;2022-09-27T04:24:10;7;3;
73623;PMS5003;61921;53.226;-1.296;2022-09-27T04:26:35;6;3;
73623;PMS5003;61921;53.226;-1.296;2022-09-27T04:29:01;7;3;
73623;PMS5003;61921;53.226;-1.296;2022-09-27T04:31:26;5;4;
73623;PMS5003;61921;53.226;-1.296;2022-09-27T04:33:52;3;2;
73623;PMS5003;61921;53.226;-1.296;2022-09-27T04:36:18;4;3;
73623;PMS5003;61921;53.226;-1.296;2022-09-27T04:38:43;4;3;
73623;PMS5003;61921;53.226;-1.296;2022-09-27T04:41:08;4;4;
73623;PMS5003;61921;53.226;-1.296;2022-09-27T04:43:34;2;2;
73623;PMS5003;61921;53.226;-1.296;2022-09-27T04:45:59;7;3;
73623;PMS5003;61921;53.226;-1.296;2022-09-27T04:48:25;5;4;
73623;PMS5003;61921;53.226;-1.296;2022-09-27T04:50:54;3;3;
73623;PMS5003;61921;53.226;-1.296;2022-09-27T04:53:16;3;2;
73623;PMS5003;61921;53.226;-1.296;2022-09-27T04:55:43;2;2;
73623;PMS5003;61921;53.226;-1.296;2022-09-27T04:58:06;4;2;
73623;PMS5003;61921;53.226;-1.296;2022-09-27T05:00:32;3;3;
73623;PMS5003;61921;53.226;-1.296;2022-09-27T05:02:57;4;2;
73623;PMS5003;61921;53.226;-1.296;2022-09-27T05:05:22;5;4;
73623;PMS5003;61921;53.226;-1.296;2022-09-27T05:07:48;2;2;
73623;PMS5003;61921;53.226;-1.296;2022-09-27T05:10:13;3;3;
73623;PMS5003;61921;53.226;-1.296;2022-09-27T05:12:39;4;3;
73623;PMS5003;61921;53.226;-1.296;2022-09-27T05:15:05;2;2;
73623;PMS5003;61921;53.226;-1.296;2022-09-27T05:17:30;2;2;
73623;PMS5003;61921;53.226;-1.296;2022-09-27T05:19:56;5;3;
73623;PMS5003;61921;53.226;-1.296;2022-09-27T05:22:21;7;3;
73623;PMS5003;61921;53.226;-1.296;2022-09-27T05:24:46;5;3;
73623;PMS5003;61921;53.226;-1.296;2022-09-27T05:27:12;4;2;
73623;PMS5003;61921;53.226;-1.296;2022-09-27T05:29:37;4;3;
73623;PMS5003;61921;53.226;-1.296;2022-09-27T05:32:03;4;3;
73623;PMS5003;61921;53.226;-1.296;2022-09-27T05:34:28;4;1;
73623;PMS5003;61921;53.226;-1.296;2022-09-27T05:36:54;5;5;
73623;PMS5003;61921;53.226;-1.296;2022-09-27T05:39:20;3;3;
73623;PMS5003;61921;53.226;-1.296;2022-09-27T05:41:45;4;4;
73623;PMS5003;61921;53.226;-1.296;2022-09-27T05:44:11;4;4;
73623;PMS5003;61921;53.226;-1.296;2022-09-27T05:46:36;3;3;
73623;PMS5003;61921;53.226;-1.296;2022-09-27T05:49:02;6;5;
73623;PMS5003;61921;53.226;-1.296;2022-09-27T05:51:27;2;2;
73623;PMS5003;61921;53.226;-1.296;2022-09-27T05:53:53;2;2;
73623;PMS5003;61921;53.226;-1.296;2022-09-27T05:56:18;4;3;
73623;PMS5003;61921;53.226;-1.296;2022-09-27T05:58:44;5;3;
73623;PMS5003;61921;53.226;-1.296;2022-09-27T06:01:09;3;2;
73623;PMS5003;61921;53.226;-1.296;2022-09-27T06:03:35;3;3;
73623;PMS5003;61921;53.226;-1.296;2022-09-27T06:06:00;2;2;
73623;PMS5003;61921;53.226;-1.296;2022-09-27T06:08:26;4;3;
73623;PMS5003;61921;53.226;-1.296;2022-09-27T06:10:59;4;2;
73623;PMS5003;61921;53.226;-1.296;2022-09-27T06:13:16;4;2;
73623;PMS5003;61921;53.226;-1.296;2022-09-27T06:15:42;3;3;
73623;PMS5003;61921;53.226;-1.296;2022-09-27T06:18:08;4;3;
73623;PMS5003;61921;53.226;-1.296;2022-09-27T06:20:34;7;4;
73623;PMS5003;61921;53.226;-1.296;2022-09-27T06:23:04;3;1;
73623;PMS5003;61921;53.226;-1.296;2022-09-27T06:25:24;3;1;
73623;PMS5003;61921;53.226;-1.296;2022-09-27T06:27:49;6;3;
73623;PMS5003;61921;53.226;-1.296;2022-09-27T06:30:20;4;4;
73623;PMS5003;61921;53.226;-1.296;2022-09-27T06:32:40;3;3;
73623;PMS5003;61921;53.226;-1.296;2022-09-27T06:35:06;3;2;
73623;PMS5003;61921;53.226;-1.296;2022-09-27T06:37:31;4;3;
73623;PMS5003;61921;53.226;-1.296;2022-09-27T06:39:56;5;2;
73623;PMS5003;61921;53.226;-1.296;2022-09-27T06:42:22;6;2;
73623;PMS5003;61921;53.226;-1.296;2022-09-27T06:44:47;5;2;
73623;PMS5003;61921;53.226;-1.296;2022-09-27T06:47:13;6;2;
73623;PMS5003;61921;53.226;-1.296;2022-09-27T06:49:43;6;3;
73623;PMS5003;61921;53.226;-1.296;2022-09-27T06:52:04;3;3;
73623;PMS5003;61921;53.226;-1.296;2022-09-27T06:54:29;1;1;
73623;PMS5003;61921;53.226;-1.296;2022-09-27T06:56:54;2;1;
73623;PMS5003;61921;53.226;-1.296;2022-09-27T06:59:21;1;1;
73623;PMS5003;61921;53.226;-1.296;2022-09-27T07:01:45;1;1;
73623;PMS5003;61921;53.226;-1.296;2022-09-27T07:04:11;2;2;
73623;PMS5003;61921;53.226;-1.296;2022-09-27T07:06:36;6;3;
73623;PMS5003;61921;53.226;-1.296;2022-09-27T07:09:02;3;2;
73623;PMS5003;61921;53.226;-1.296;2022-09-27T07:11:27;2;2;
73623;PMS5003;61921;53.226;-1.296;2022-09-27T07:13:53;4;2;
73623;PMS5003;61921;53.226;-1.296;2022-09-27T07:16:18;2;2;
73623;PMS5003;61921;53.226;-1.296;2022-09-27T07:18:43;2;1;
73623;PMS5003;61921;53.226;-1.296;2022-09-27T07:21:09;3;3;
73623;PMS5003;61921;53.226;-1.296;2022-09-27T07:23:34;3;3;
73623;PMS5003;61921;53.226;-1.296;2022-09-27T07:26:00;1;1;
73623;PMS5003;61921;53.226;-1.296;2022-09-27T07:28:25;2;1;
73623;PMS5003;61921;53.226;-1.296;2022-09-27T07:30:53;5;1;
73623;PMS5003;61921;53.226;-1.296;2022-09-27T07:33:16;1;1;
73623;PMS5003;61921;53.226;-1.296;2022-09-27T07:35:41;1;1;
73623;PMS5003;61921;53.226;-1.296;2022-09-27T07:38:07;1;1;
73623;PMS5003;61921;53.226;-1.296;2022-09-27T07:40:32;1;1;
73623;PMS5003;61921;53.226;-1.296;2022-09-27T07:42:58;1;1;
73623;PMS5003;61921;53.226;-1.296;2022-09-27T07:45:23;1;1;
73623;PMS5003;61921;53.226;-1.296;2022-09-27T07:47:48;1;1;
73623;PMS5003;61921;53.226;-1.296;2022-09-27T07:50:14;2;1;
73623;PMS5003;61921;53.226;-1.296;2022-09-27T07:52:39;3;1;
73623;PMS5003;61921;53.226;-1.296;2022-09-27T07:55:05;1;1;
73623;PMS5003;61921;53.226;-1.296;2022-09-27T07:57:30;1;1;
73623;PMS5003;61921;53.226;-1.296;2022-09-27T07:59:55;1;1;
73623;PMS5003;61921;53.226;-1.296;2022-09-27T08:02:21;1;1;
73623;PMS5003;61921;53.226;-1.296;2022-09-27T08:04:46;1;1;
73623;PMS5003;61921;53.226;-1.296;2022-09-27T08:07:12;2;1;
73623;PMS5003;61921;53.226;-1.296;2022-09-27T08:09:37;4;1;
73623;PMS5003;61921;53.226;-1.296;2022-09-27T08:12:03;2;2;
73623;PMS5003;61921;53.226;-1.296;2022-09-27T08:14:28;1;1;
73623;PMS5003;61921;53.226;-1.296;2022-09-27T08:16:53;2;2;
73623;PMS5003;61921;53.226;-1.296;2022-09-27T08:19:19;2;2;
73623;PMS5003;61921;53.226;-1.296;2022-09-27T08:21:44;3;2;
73623;PMS5003;61921;53.226;-1.296;2022-09-27T08:24:09;2;2;
73623;PMS5003;61921;53.226;-1.296;2022-09-27T08:26:35;1;1;
73623;PMS5003;61921;53.226;-1.296;2022-09-27T08:29:00;3;2;
73623;PMS5003;61921;53.226;-1.296;2022-09-27T08:31:25;3;3;
73623;PMS5003;61921;53.226;-1.296;2022-09-27T08:33:51;5;4;
73623;PMS5003;61921;53.226;-1.296;2022-09-27T08:36:16;11;2;
73623;PMS5003;61921;53.226;-1.296;2022-09-27T08:38:41;4;3;
73623;PMS5003;61921;53.226;-1.296;2022-09-27T08:41:08;2;2;
73623;PMS5003;61921;53.226;-1.296;2022-09-27T08:43:34;4;3;
73623;PMS5003;61921;53.226;-1.296;2022-09-27T08:46:02;3;0;
73623;PMS5003;61921;53.226;-1.296;2022-09-27T08:48:23;2;2;
73623;PMS5003;61921;53.226;-1.296;2022-09-27T08:50:48;3;3;
73623;PMS5003;61921;53.226;-1.296;2022-09-27T08:53:16;2;2;
73623;PMS5003;61921;53.226;-1.296;2022-09-27T08:55:40;3;2;
73623;PMS5003;61921;53.226;-1.296;2022-09-27T08:58:10;4;3;
73623;PMS5003;61921;53.226;-1.296;2022-09-27T09:00:30;4;2;
73623;PMS5003;61921;53.226;-1.296;2022-09-27T09:02:55;3;1;
73623;PMS5003;61921;53.226;-1.296;2022-09-27T09:05:23;4;1;
73623;PMS5003;61921;53.226;-1.296;2022-09-27T09:07:50;3;2;
73623;PMS5003;61921;53.226;-1.296;2022-09-27T09:10:17;1;1;
73623;PMS5003;61921;53.226;-1.296;2022-09-27T09:12:39;1;1;
73623;PMS5003;61921;53.226;-1.296;2022-09-27T09:15:06;2;1;
73623;PMS5003;61921;53.226;-1.296;2022-09-27T09:17:33;0;0;
73623;PMS5003;61921;53.226;-1.296;2022-09-27T09:19:57;2;1;
73623;PMS5003;61921;53.226;-1.296;2022-09-27T09:22:24;2;2;
73623;PMS5003;61921;53.226;-1.296;2022-09-27T09:24:47;2;2;
73623;PMS5003;61921;53.226;-1.296;2022-09-27T09:27:11;3;3;
73623;PMS5003;61921;53.226;-1.296;2022-09-27T09:29:38;4;1;
73623;PMS5003;61921;53.226;-1.296;2022-09-27T09:32:01;2;1;
73623;PMS5003;61921;53.226;-1.296;2022-09-27T09:34:25;2;0;
73623;PMS5003;61921;53.226;-1.296;2022-09-27T09:36:51;4;1;
73623;PMS5003;61921;53.226;-1.296;2022-09-27T09:39:16;1;1;
73623;PMS5003;61921;53.226;-1.296;2022-09-27T09:41:42;5;1;
73623;PMS5003;61921;53.226;-1.296;2022-09-27T09:44:10;5;2;
73623;PMS5003;61921;53.226;-1.296;2022-09-27T09:46:38;4;2;
73623;PMS5003;61921;53.226;-1.296;2022-09-27T09:48:58;4;2;
73623;PMS5003;61921;53.226;-1.296;2022-09-27T09:51:28;1;1;
73623;PMS5003;61921;53.226;-1.296;2022-09-27T09:53:50;1;0;
73623;PMS5003;61921;53.226;-1.296;2022-09-27T09:56:14;1;1;
73623;PMS5003;61921;53.226;-1.296;2022-09-27T09:58:40;0;0;
73623;PMS5003;61921;53.226;-1.296;2022-09-27T10:01:09;3;0;
73623;PMS5003;61921;53.226;-1.296;2022-09-27T10:03:29;2;1;
73623;PMS5003;61921;53.226;-1.296;2022-09-27T10:05:55;0;0;
73623;PMS5003;61921;53.226;-1.296;2022-09-27T10:08:21;2;1;
73623;PMS5003;61921;53.226;-1.296;2022-09-27T10:10:45;1;0;
73623;PMS5003;61921;53.226;-1.296;2022-09-27T10:13:16;3;1;
73623;PMS5003;61921;53.226;-1.296;2022-09-27T10:15:36;1;1;
73623;PMS5003;61921;53.226;-1.296;2022-09-27T10:18:01;2;1;
73623;PMS5003;61921;53.226;-1.296;2022-09-27T10:20:29;0;0;
73623;PMS5003;61921;53.226;-1.296;2022-09-27T10:22:53;0;0;
73623;PMS5003;61921;53.226;-1.296;2022-09-27T10:25:17;4;2;
73623;PMS5003;61921;53.226;-1.296;2022-09-27T10:27:43;1;1;
73623;PMS5003;61921;53.226;-1.296;2022-09-27T10:32:33;2;1;
73623;PMS5003;61921;53.226;-1.296;2022-09-27T10:37:24;0;0;
73623;PMS5003;61921;53.226;-1.296;2022-09-27T10:39:49;4;1;
73623;PMS5003;61921;53.226;-1.296;2022-09-27T10:42:20;2;1;
73623;PMS5003;61921;53.226;-1.296;2022-09-27T10:44:39;1;1;
73623;PMS5003;61921;53.226;-1.296;2022-09-27T10:47:06;1;1;
73623;PMS5003;61921;53.226;-1.296;2022-09-27T10:49:31;2;1;
73623;PMS5003;61921;53.226;-1.296;2022-09-27T10:51:56;1;1;
73623;PMS5003;61921;53.226;-1.296;2022-09-27T10:54:21;0;0;
73623;PMS5003;61921;53.226;-1.296;2022-09-27T10:59:14;0;0;
73623;PMS5003;61921;53.226;-1.296;2022-09-27T11:01:38;1;1;
73623;PMS5003;61921;53.226;-1.296;2022-09-27T11:04:02;2;1;
73623;PMS5003;61921;53.226;-1.296;2022-09-27T11:06:32;2;2;
73623;PMS5003;61921;53.226;-1.296;2022-09-27T11:08:53;2;0;
73623;PMS5003;61921;53.226;-1.296;2022-09-27T11:11:20;0;0;
73623;PMS5003;61921;53.226;-1.296;2022-09-27T11:16:13;1;1;
73623;PMS5003;61921;53.226;-1.296;2022-09-27T11:18:35;2;2;
73623;PMS5003;61921;53.226;-1.296;2022-09-27T11:21:00;2;1;
73623;PMS5003;61921;53.226;-1.296;2022-09-27T11:23:28;0;0;
73623;PMS5003;61921;53.226;-1.296;2022-09-27T11:25:57;2;1;
73623;PMS5003;61921;53.226;-1.296;2022-09-27T11:28:18;3;2;
73623;PMS5003;61921;53.226;-1.296;2022-09-27T11:30:42;1;1;
73623;PMS5003;61921;53.226;-1.296;2022-09-27T11:33:10;1;1;
73623;PMS5003;61921;53.226;-1.296;2022-09-27T11:35:35;1;1;
73623;PMS5003;61921;53.226;-1.296;2022-09-27T11:37:58;0;0;
73623;PMS5003;61921;53.226;-1.296;2022-09-27T11:40:24;0;0;
73623;PMS5003;61921;53.226;-1.296;2022-09-27T11:42:57;1;1;
73623;PMS5003;61921;53.226;-1.296;2022-09-27T11:45:16;1;1;
73623;PMS5003;61921;53.226;-1.296;2022-09-27T11:47:40;7;6;
73623;PMS5003;61921;53.226;-1.296;2022-09-27T11:52:32;2;1;
73623;PMS5003;61921;53.226;-1.296;2022-09-27T11:54:58;6;6;
73623;PMS5003;61921;53.226;-1.296;2022-09-27T11:57:20;5;1;
73623;PMS5003;61921;53.226;-1.296;2022-09-27T11:59:49;1;1;
73623;PMS5003;61921;53.226;-1.296;2022-09-27T12:02:15;2;2;
73623;PMS5003;61921;53.226;-1.296;2022-09-27T12:04:41;1;1;
73623;PMS5003;61921;53.226;-1.296;2022-09-27T12:07:02;1;1;
73623;PMS5003;61921;53.226;-1.296;2022-09-27T12:09:27;2;0;
73623;PMS5003;61921;53.226;-1.296;2022-09-27T12:11:52;0;0;
73623;PMS5003;61921;53.226;-1.296;2022-09-27T12:14:18;0;0;
73623;PMS5003;61921;53.226;-1.296;2022-09-27T12:16:42;1;1;
73623;PMS5003;61921;53.226;-1.296;2022-09-27T12:19:09;1;0;
73623;PMS5003;61921;53.226;-1.296;2022-09-27T12:21:32;1;1;
73623;PMS5003;61921;53.226;-1.296;2022-09-27T12:23:58;1;1;
73623;PMS5003;61921;53.226;-1.296;2022-09-27T12:26:24;1;0;
73623;PMS5003;61921;53.226;-1.296;2022-09-27T12:28:49;2;2;
73623;PMS5003;61921;53.226;-1.296;2022-09-27T12:31:15;1;1;
73623;PMS5003;61921;53.226;-1.296;2022-09-27T12:33:40;2;0;
73623;PMS5003;61921;53.226;-1.296;2022-09-27T12:36:05;0;0;
73623;PMS5003;61921;53.226;-1.296;2022-09-27T12:38:32;0;0;
73623;PMS5003;61921;53.226;-1.296;2022-09-27T12:40:56;1;0;
73623;PMS5003;61921;53.226;-1.296;2022-09-27T12:43:20;2;1;
73623;PMS5003;61921;53.226;-1.296;2022-09-27T12:45:52;0;0;
73623;PMS5003;61921;53.226;-1.296;2022-09-27T12:48:12;0;0;
73623;PMS5003;61921;53.226;-1.296;2022-09-27T12:50:37;0;0;
73623;PMS5003;61921;53.226;-1.296;2022-09-27T12:53:02;2;0;
73623;PMS5003;61921;53.226;-1.296;2022-09-27T12:55:31;1;0;
73623;PMS5003;61921;53.226;-1.296;2022-09-27T12:57:58;1;0;
73623;PMS5003;61921;53.226;-1.296;2022-09-27T13:00:17;0;0;
73623;PMS5003;61921;53.226;-1.296;2022-09-27T13:02:50;2;1;
73623;PMS5003;61921;53.226;-1.296;2022-09-27T13:05:18;1;1;
73623;PMS5003;61921;53.226;-1.296;2022-09-27T13:07:36;2;0;
73623;PMS5003;61921;53.226;-1.296;2022-09-27T13:10:02;1;1;
73623;PMS5003;61921;53.226;-1.296;2022-09-27T13:12:24;2;0;
73623;PMS5003;61921;53.226;-1.296;2022-09-27T13:14:54;2;1;
73623;PMS5003;61921;53.226;-1.296;2022-09-27T13:19:41;2;2;
73623;PMS5003;61921;53.226;-1.296;2022-09-27T13:22:06;1;1;
73623;PMS5003;61921;53.226;-1.296;2022-09-27T13:26:56;1;1;
73623;PMS5003;61921;53.226;-1.296;2022-09-27T13:29:27;0;0;
73623;PMS5003;61921;53.226;-1.296;2022-09-27T13:34:14;1;1;
73623;PMS5003;61921;53.226;-1.296;2022-09-27T13:36:37;0;0;
73623;PMS5003;61921;53.226;-1.296;2022-09-27T13:39:04;2;2;
73623;PMS5003;61921;53.226;-1.296;2022-09-27T13:41:29;1;1;
73623;PMS5003;61921;53.226;-1.296;2022-09-27T13:43:56;1;0;
73623;PMS5003;61921;53.226;-1.296;2022-09-27T13:46:19;1;1;
73623;PMS5003;61921;53.226;-1.296;2022-09-27T13:48:45;2;2;
73623;PMS5003;61921;53.226;-1.296;2022-09-27T13:51:15;2;1;
73623;PMS5003;61921;53.226;-1.296;2022-09-27T13:53:35;0;0;
73623;PMS5003;61921;53.226;-1.296;2022-09-27T13:55:59;0;0;
73623;PMS5003;61921;53.226;-1.296;2022-09-27T13:58:29;0;0;
73623;PMS5003;61921;53.226;-1.296;2022-09-27T14:00:51;0;0;
73623;PMS5003;61921;53.226;-1.296;2022-09-27T14:03:17;2;1;
73623;PMS5003;61921;53.226;-1.296;2022-09-27T14:05:45;5;5;
73623;PMS5003;61921;53.226;-1.296;2022-09-27T14:08:06;3;1;
73623;PMS5003;61921;53.226;-1.296;2022-09-27T14:10:31;2;1;
73623;PMS5003;61921;53.226;-1.296;2022-09-27T14:12:57;3;0;
73623;PMS5003;61921;53.226;-1.296;2022-09-27T14:15:22;0;0;
73623;PMS5003;61921;53.226;-1.296;2022-09-27T14:17:47;0;0;
73623;PMS5003;61921;53.226;-1.296;2022-09-27T14:22:38;0;0;
73623;PMS5003;61921;53.226;-1.296;2022-09-27T14:27:29;0;0;
73623;PMS5003;61921;53.226;-1.296;2022-09-27T14:29:55;0;0;
73623;PMS5003;61921;53.226;-1.296;2022-09-27T14:32:20;1;1;
73623;PMS5003;61921;53.226;-1.296;2022-09-27T14:34:44;1;1;
73623;PMS5003;61921;53.226;-1.296;2022-09-27T14:37:17;1;1;
73623;PMS5003;61921;53.226;-1.296;2022-09-27T14:39:35;1;0;
73623;PMS5003;61921;53.226;-1.296;2022-09-27T14:42:01;1;1;
73623;PMS5003;61921;53.226;-1.296;2022-09-27T14:44:25;7;5;
73623;PMS5003;61921;53.226;-1.296;2022-09-27T14:49:18;4;4;
73623;PMS5003;61921;53.226;-1.296;2022-09-27T14:51:41;6;4;
73623;PMS5003;61921;53.226;-1.296;2022-09-27T14:54:17;5;3;
73623;PMS5003;61921;53.226;-1.296;2022-09-27T14:56:33;4;2;
73623;PMS5003;61921;53.226;-1.296;2022-09-27T14:58:59;3;2;
73623;PMS5003;61921;53.226;-1.296;2022-09-27T15:01:23;1;1;
73623;PMS5003;61921;53.226;-1.296;2022-09-27T15:03:48;1;1;
73623;PMS5003;61921;53.226;-1.296;2022-09-27T15:06:15;4;4;
73623;PMS5003;61921;53.226;-1.296;2022-09-27T15:08:39;5;3;
73623;PMS5003;61921;53.226;-1.296;2022-09-27T15:11:04;1;1;
73623;PMS5003;61921;53.226;-1.296;2022-09-27T15:13:29;2;2;
73623;PMS5003;61921;53.226;-1.296;2022-09-27T15:15:54;1;1;
73623;PMS5003;61921;53.226;-1.296;2022-09-27T15:18:30;1;1;
73623;PMS5003;61921;53.226;-1.296;2022-09-27T15:25:37;1;1;
73623;PMS5003;61921;53.226;-1.296;2022-09-27T15:28:02;2;2;
73623;PMS5003;61921;53.226;-1.296;2022-09-27T15:30:27;3;3;
73623;PMS5003;61921;53.226;-1.296;2022-09-27T15:32:52;4;3;
73623;PMS5003;61921;53.226;-1.296;2022-09-27T15:35:19;3;1;
73623;PMS5003;61921;53.226;-1.296;2022-09-27T15:37:42;3;1;
73623;PMS5003;61921;53.226;-1.296;2022-09-27T15:44:58;2;2;
73623;PMS5003;61921;53.226;-1.296;2022-09-27T15:49:49;2;2;
73623;PMS5003;61921;53.226;-1.296;2022-09-27T15:54:39;2;1;
73623;PMS5003;61921;53.226;-1.296;2022-09-27T15:57:05;3;2;
73623;PMS5003;61921;53.226;-1.296;2022-09-27T15:59:31;2;2;
73623;PMS5003;61921;53.226;-1.296;2022-09-27T16:01:56;1;1;
73623;PMS5003;61921;53.226;-1.296;2022-09-27T16:04:21;1;1;
73623;PMS5003;61921;53.226;-1.296;2022-09-27T16:06:46;2;1;
73623;PMS5003;61921;53.226;-1.296;2022-09-27T16:09:13;2;2;
73623;PMS5003;61921;53.226;-1.296;2022-09-27T16:11:37;2;2;
73623;PMS5003;61921;53.226;-1.296;2022-09-27T16:14:02;2;2;
73623;PMS5003;61921;53.226;-1.296;2022-09-27T16:16:27;1;1;
73623;PMS5003;61921;53.226;-1.296;2022-09-27T16:18:52;7;6;
73623;PMS5003;61921;53.226;-1.296;2022-09-27T16:21:18;6;6;
73623;PMS5003;61921;53.226;-1.296;2022-09-27T16:23:48;4;4;
73623;PMS5003;61921;53.226;-1.296;2022-09-27T16:26:09;3;2;
73623;PMS5003;61921;53.226;-1.296;2022-09-27T16:28:34;4;1;
73623;PMS5003;61921;53.226;-1.296;2022-09-27T16:31:00;3;2;
73623;PMS5003;61921;53.226;-1.296;2022-09-27T16:33:25;3;3;
73623;PMS5003;61921;53.226;-1.296;2022-09-27T16:35:50;4;4;
73623;PMS5003;61921;53.226;-1.296;2022-09-27T16:38:15;5;2;
73623;PMS5003;61921;53.226;-1.296;2022-09-27T16:40:41;3;3;
73623;PMS5003;61921;53.226;-1.296;2022-09-27T16:43:06;2;1;
73623;PMS5003;61921;53.226;-1.296;2022-09-27T16:45:32;4;4;
73623;PMS5003;61921;53.226;-1.296;2022-09-27T16:47:57;4;3;
73623;PMS5003;61921;53.226;-1.296;2022-09-27T16:50:22;5;4;
73623;PMS5003;61921;53.226;-1.296;2022-09-27T16:52:48;2;2;
73623;PMS5003;61921;53.226;-1.296;2022-09-27T16:55:13;3;2;
73623;PMS5003;61921;53.226;-1.296;2022-09-27T16:57:39;4;3;
73623;PMS5003;61921;53.226;-1.296;2022-09-27T17:00:05;5;3;
73623;PMS5003;61921;53.226;-1.296;2022-09-27T17:02:29;3;3;
73623;PMS5003;61921;53.226;-1.296;2022-09-27T17:04:54;4;3;